createdAt,value
2019-04-23T00:02:26.554Z,12.96
2019-04-23T00:04:46.882Z,12.97
2019-04-23T00:07:39.182Z,12.88
2019-04-23T00:09:57.161Z,12.87
2019-04-23T00:12:29.985Z,12.79
2019-04-23T00:15:04.394Z,12.71
2019-04-23T00:17:29.937Z,12.71
2019-04-23T00:19:55.734Z,12.78
2019-04-23T00:22:29.161Z,12.66
2019-04-23T00:25:36.427Z,12.70
2019-04-23T00:27:40.536Z,12.60
2019-04-23T00:30:20.280Z,12.52
2019-04-23T00:32:34.978Z,12.59
2019-04-23T00:40:19.043Z,12.56
2019-04-23T00:42:36.606Z,12.43
2019-04-23T00:45:00.300Z,12.47
2019-04-23T00:50:20.251Z,12.47
2019-04-23T00:52:32.160Z,12.50
2019-04-23T00:57:35.937Z,12.46
2019-04-23T01:00:13.985Z,12.46
2019-04-23T01:02:36.988Z,12.42
2019-04-23T01:05:11.418Z,12.42
2019-04-23T01:07:38.342Z,12.42
2019-04-23T01:15:11.987Z,12.36
2019-04-23T01:20:15.009Z,12.36
2019-04-23T01:22:33.509Z,12.39
2019-04-23T01:25:13.416Z,12.31
2019-04-23T01:28:07.590Z,12.33
2019-04-23T01:30:32.870Z,12.33
2019-04-23T01:33:14.203Z,12.29
2019-04-23T01:35:36.400Z,12.23
2019-04-23T01:38:09.650Z,12.23
2019-04-23T01:40:37.491Z,12.14
2019-04-23T01:43:07.919Z,12.14
2019-04-23T01:45:30.726Z,12.15
2019-04-23T01:48:04.694Z,12.13
2019-04-23T01:50:47.099Z,12.13
2019-04-23T01:53:16.699Z,12.12
2019-04-23T01:55:42.163Z,12.05
2019-04-23T02:00:40.755Z,11.96
2019-04-23T02:03:26.702Z,12.05
2019-04-23T02:05:42.657Z,11.99
2019-04-23T02:13:16.147Z,11.89
2019-04-23T02:15:44.059Z,11.93
2019-04-23T02:18:17.968Z,11.98
2019-04-23T02:20:48.006Z,11.98
2019-04-23T02:23:28.099Z,11.95
2019-04-23T02:28:28.644Z,11.83
2019-04-23T02:36:05.449Z,11.81
2019-04-23T02:38:40.622Z,11.83
2019-04-23T02:43:21.981Z,11.81
2019-04-23T02:48:36.212Z,11.75
2019-04-23T02:50:55.025Z,11.61
2019-04-23T03:03:44.910Z,11.35
2019-04-23T03:06:05.916Z,11.32
2019-04-23T03:08:36.332Z,11.26
2019-04-23T03:11:09.971Z,11.31
2019-04-23T03:16:34.780Z,11.33
2019-04-23T03:24:16.297Z,11.29
2019-04-23T03:35:16.085Z,11.24
2019-04-23T03:36:42.782Z,11.26
2019-04-23T03:38:56.053Z,11.11
2019-04-23T03:43:54.402Z,11.19
2019-04-23T03:48:57.067Z,11.15
2019-04-23T03:51:34.143Z,11.19
2019-04-23T03:54:24.433Z,11.10
2019-04-23T03:56:48.599Z,11.15
2019-04-23T03:59:32.738Z,11.15
2019-04-23T04:01:34.695Z,11.26
2019-04-23T04:09:24.168Z,10.87
2019-04-23T04:11:29.261Z,11.00
2019-04-23T04:16:42.770Z,11.04
2019-04-23T04:19:16.813Z,11.02
2019-04-23T04:26:43.854Z,10.97
2019-04-23T04:29:11.766Z,11.02
2019-04-23T04:31:54.750Z,11.08
2019-04-23T04:34:21.638Z,11.06
2019-04-23T04:36:45.863Z,11.14
2019-04-23T04:39:00.685Z,11.19
2019-04-23T04:41:40.540Z,11.24
2019-04-23T04:49:15.100Z,11.16
2019-04-23T04:51:51.877Z,11.30
2019-04-23T04:59:11.965Z,11.50
2019-04-23T05:01:37.353Z,11.44
2019-04-23T05:06:59.395Z,11.54
2019-04-23T05:09:31.841Z,11.52
2019-04-23T05:14:08.230Z,11.78
2019-04-23T05:16:44.463Z,11.64
2019-04-23T05:19:22.184Z,11.89
2019-04-23T05:21:46.772Z,11.72
2019-04-23T05:24:08.953Z,11.88
2019-04-23T05:26:33.129Z,11.90
2019-04-23T05:31:32.863Z,11.97
2019-04-23T05:34:11.095Z,12.04
2019-04-23T05:36:45.689Z,12.04
2019-04-23T05:39:17.256Z,11.98
2019-04-23T05:41:41.235Z,12.06
2019-04-23T05:44:17.146Z,12.01
2019-04-23T05:46:37.742Z,11.97
2019-04-23T05:49:14.308Z,12.13
2019-04-23T05:54:12.904Z,12.36
2019-04-23T05:56:52.044Z,11.95
2019-04-23T05:59:14.680Z,12.16
2019-04-23T06:09:14.110Z,12.30
2019-04-23T06:19:18.247Z,12.64
2019-04-23T06:21:57.782Z,12.54
2019-04-23T06:24:23.889Z,12.57
2019-04-23T06:26:49.195Z,12.57
2019-04-23T06:29:20.624Z,12.83
2019-04-23T06:34:17.126Z,13.04
2019-04-23T06:36:44.477Z,12.87
2019-04-23T06:39:23.348Z,12.96
2019-04-23T06:41:50.057Z,12.96
2019-04-23T06:49:37.251Z,13.09
2019-04-23T06:54:35.872Z,13.19
2019-04-23T06:57:11.872Z,13.09
2019-04-23T06:59:30.677Z,13.22
2019-04-23T07:04:37.457Z,13.09
2019-04-23T07:07:29.668Z,13.09
2019-04-23T07:09:27.461Z,13.09
2019-04-23T07:12:07.680Z,13.20
2019-04-23T07:14:35.884Z,13.13
2019-04-23T07:17:02.696Z,13.23
2019-04-23T07:19:39.291Z,13.20
2019-04-23T07:22:14.588Z,13.42
2019-04-23T07:24:36.598Z,13.41
2019-04-23T07:27:03.320Z,13.33
2019-04-23T07:29:31.406Z,13.50
2019-04-23T07:32:05.917Z,13.58
2019-04-23T07:34:37.514Z,13.67
2019-04-23T07:37:05.201Z,13.66
2019-04-23T07:40:14.155Z,13.67
2019-04-23T07:42:29.940Z,13.81
2019-04-23T07:45:18.921Z,13.89
2019-04-23T07:48:15.208Z,13.91
2019-04-23T07:50:49.064Z,13.93
2019-04-23T07:53:16.335Z,14.05
2019-04-23T07:58:14.357Z,14.16
2019-04-23T08:03:17.396Z,14.17
2019-04-23T08:08:21.453Z,14.38
2019-04-23T08:11:14.325Z,14.38
2019-04-23T08:13:16.366Z,14.53
2019-04-23T08:15:42.977Z,14.43
2019-04-23T08:18:13.567Z,14.34
2019-04-23T08:20:49.048Z,14.73
2019-04-23T08:23:16.481Z,14.73
2019-04-23T08:26:00.551Z,14.86
2019-04-23T08:28:23.033Z,14.61
2019-04-23T08:30:46.559Z,14.60
2019-04-23T08:33:21.284Z,14.84
2019-04-23T08:35:54.251Z,15.02
2019-04-23T08:40:55.634Z,14.96
2019-04-23T08:46:18.693Z,15.17
2019-04-23T08:48:41.632Z,15.22
2019-04-23T08:51:26.212Z,15.11
2019-04-23T08:53:57.099Z,15.01
2019-04-23T08:56:12.350Z,15.01
2019-04-23T08:58:43.616Z,15.17
2019-04-23T09:01:12.265Z,15.35
2019-04-23T09:03:39.139Z,15.43
2019-04-23T09:06:15.771Z,15.47
2019-04-23T09:08:44.250Z,15.56
2019-04-23T09:11:30.848Z,15.76
2019-04-23T09:13:53.558Z,15.74
2019-04-23T09:16:22.123Z,15.67
2019-04-23T09:19:02.788Z,15.53
2019-04-23T09:21:15.587Z,15.74
2019-04-23T09:23:46.639Z,15.74
2019-04-23T09:26:08.985Z,15.80
2019-04-23T09:28:51.661Z,15.84
2019-04-23T09:32:02.024Z,16.06
2019-04-23T09:34:05.589Z,15.97
2019-04-23T09:36:58.172Z,16.03
2019-04-23T09:39:34.889Z,16.18
2019-04-23T09:42:08.743Z,16.28
2019-04-23T09:47:38.552Z,16.23
2019-04-23T09:50:15.835Z,16.27
2019-04-23T09:52:44.668Z,16.29
2019-04-23T09:55:15.531Z,16.39
2019-04-23T09:57:43.375Z,16.43
2019-04-23T10:00:16.880Z,16.76
2019-04-23T10:02:30.834Z,16.83
2019-04-23T10:04:55.513Z,16.66
2019-04-23T10:07:27.115Z,16.63
2019-04-23T10:09:44.760Z,16.84
2019-04-23T10:12:14.656Z,16.97
2019-04-23T10:14:54.861Z,16.81
2019-04-23T10:17:13.955Z,16.78
2019-04-23T10:19:42.759Z,16.79
2019-04-23T10:22:11.487Z,16.87
2019-04-23T10:24:41.097Z,17.08
2019-04-23T10:27:10.059Z,17.13
2019-04-23T10:29:41.628Z,17.13
2019-04-23T10:32:11.678Z,17.19
2019-04-23T10:34:55.259Z,17.29
2019-04-23T10:37:11.392Z,17.29
2019-04-23T10:39:43.696Z,17.38
2019-04-23T10:42:11.988Z,17.20
2019-04-23T10:44:43.868Z,17.43
2019-04-23T10:48:10.154Z,17.44
2019-04-23T10:53:20.184Z,17.21
2019-04-23T10:55:49.968Z,17.41
2019-04-23T10:58:08.455Z,17.55
2019-04-23T11:00:37.622Z,17.40
2019-04-23T11:03:21.728Z,17.41
2019-04-23T11:08:11.202Z,17.55
2019-04-23T11:10:42.920Z,17.46
2019-04-23T11:13:17.518Z,17.84
2019-04-23T11:18:04.086Z,17.96
2019-04-23T11:20:44.611Z,18.10
2019-04-23T11:23:08.107Z,18.25
2019-04-23T11:25:55.700Z,18.27
2019-04-23T11:28:22.718Z,18.18
2019-04-23T11:30:41.705Z,18.23
2019-04-23T11:33:18.515Z,18.39
2019-04-23T11:36:01.753Z,18.06
2019-04-23T11:38:43.790Z,18.17
2019-04-23T11:40:41.825Z,18.42
2019-04-23T11:43:20.334Z,18.53
2019-04-23T11:53:29.731Z,18.86
2019-04-23T11:56:13.976Z,19.20
2019-04-23T12:01:10.864Z,19.04
2019-04-23T12:03:37.317Z,18.78
2019-04-23T12:06:12.148Z,19.04
2019-04-23T12:08:57.351Z,19.24
2019-04-23T12:14:24.264Z,19.20
2019-04-23T12:17:15.256Z,19.18
2019-04-23T12:22:15.071Z,18.85
2019-04-23T12:34:59.394Z,19.26
2019-04-23T12:37:34.638Z,19.41
2019-04-23T12:40:12.862Z,19.54
2019-04-23T12:47:43.844Z,19.87
2019-04-23T12:50:33.387Z,19.51
2019-04-23T12:52:40.598Z,19.58
2019-04-23T12:57:37.291Z,19.31
2019-04-23T13:00:12.209Z,19.23
2019-04-23T13:05:23.151Z,19.25
2019-04-23T13:07:38.574Z,19.19
2019-04-23T13:10:11.899Z,19.16
2019-04-23T13:12:46.667Z,19.30
2019-04-23T13:15:10.794Z,19.34
2019-04-23T13:20:23.641Z,19.42
2019-04-23T13:25:18.201Z,19.84
2019-04-23T13:27:55.581Z,19.65
2019-04-23T13:30:24.994Z,19.85
2019-04-23T13:32:52.193Z,19.74
2019-04-23T13:35:28.200Z,19.58
2019-04-23T13:37:56.898Z,19.78
2019-04-23T13:40:24.381Z,19.82
2019-04-23T13:42:55.134Z,19.71
2019-04-23T13:45:45.983Z,19.84
2019-04-23T13:47:53.224Z,19.57
2019-04-23T13:50:30.931Z,19.30
2019-04-23T14:00:31.621Z,19.61
2019-04-23T14:02:52.681Z,19.74
2019-04-23T14:05:38.050Z,19.49
2019-04-23T14:08:15.512Z,19.16
2019-04-23T14:15:54.103Z,18.85
2019-04-23T14:21:05.958Z,19.04
2019-04-23T14:25:59.858Z,19.05
2019-04-23T14:28:21.942Z,19.02
2019-04-23T14:30:53.874Z,18.98
2019-04-23T14:35:49.699Z,18.77
2019-04-23T14:38:27.618Z,18.69
2019-04-23T14:43:40.292Z,18.72
2019-04-23T14:46:27.128Z,18.66
2019-04-23T14:51:02.485Z,18.77
2019-04-23T14:53:24.697Z,18.59
2019-04-23T14:58:36.847Z,18.39
2019-04-23T15:01:16.134Z,18.16
2019-04-23T15:03:35.415Z,18.16
2019-04-23T15:06:12.692Z,18.03
2019-04-23T15:08:39.783Z,17.78
2019-04-23T15:11:13.456Z,18.05
2019-04-23T15:13:40.771Z,17.87
2019-04-23T15:16:11.464Z,17.91
2019-04-23T15:18:50.769Z,17.85
2019-04-23T15:21:42.407Z,17.70
2019-04-23T15:23:54.002Z,17.69
2019-04-23T15:27:02.280Z,17.74
2019-04-23T15:28:18.649Z,17.74
2019-04-23T15:31:20.155Z,17.69
2019-04-23T15:33:56.554Z,17.62
2019-04-23T15:46:47.450Z,17.38
2019-04-23T15:49:18.210Z,17.38
2019-04-23T16:01:34.607Z,17.25
2019-04-23T16:03:41.911Z,17.13
2019-04-23T16:06:12.735Z,17.24
2019-04-23T16:09:06.130Z,17.14
2019-04-23T16:19:20.677Z,16.98
2019-04-23T16:22:04.664Z,17.09
2019-04-23T16:24:19.384Z,17.03
2019-04-23T16:31:46.872Z,17.02
2019-04-23T16:34:27.277Z,16.99
2019-04-23T16:36:55.511Z,17.00
2019-04-23T16:39:22.261Z,16.97
2019-04-23T16:41:54.795Z,17.00
2019-04-23T16:44:36.996Z,16.89
2019-04-23T16:46:56.159Z,16.94
2019-04-23T16:49:22.043Z,16.89
2019-04-23T16:51:47.538Z,16.87
2019-04-23T16:54:36.832Z,16.83
2019-04-23T16:57:17.902Z,16.87
2019-04-23T16:59:24.211Z,16.58
2019-04-23T17:02:03.556Z,16.46
2019-04-23T17:04:24.842Z,16.40
2019-04-23T17:06:57.735Z,16.53
2019-04-23T17:09:26.338Z,16.27
2019-04-23T17:12:05.987Z,16.42
2019-04-23T17:16:51.603Z,16.26
2019-04-23T17:21:59.966Z,16.15
2019-04-23T17:27:07.140Z,16.33
2019-04-23T17:29:28.680Z,16.17
2019-04-23T17:32:07.113Z,16.10
2019-04-23T17:34:47.535Z,16.14
2019-04-23T17:37:19.928Z,16.14
2019-04-23T17:40:08.683Z,16.03
2019-04-23T17:42:39.809Z,16.08
2019-04-23T17:52:51.095Z,16.30
2019-04-23T17:55:15.027Z,16.22
2019-04-23T17:57:44.401Z,16.13
2019-04-23T18:02:55.623Z,16.26
2019-04-23T18:05:27.420Z,16.26
2019-04-23T18:08:01.736Z,16.34
2019-04-23T18:12:53.799Z,16.34
2019-04-23T18:15:24.505Z,16.38
2019-04-23T18:17:54.763Z,16.35
2019-04-23T18:23:04.201Z,16.24
2019-04-23T18:25:26.718Z,16.32
2019-04-23T18:30:28.809Z,16.40
2019-04-23T18:33:31.903Z,16.36
2019-04-23T18:35:27.955Z,16.45
2019-04-23T18:37:56.405Z,16.44
2019-04-23T18:40:29.892Z,16.47
2019-04-23T18:43:04.501Z,16.48
2019-04-23T18:45:38.689Z,16.52
2019-04-23T18:48:34.352Z,16.51
2019-04-23T18:50:58.507Z,16.57
2019-04-23T18:53:26.775Z,16.66
2019-04-23T18:58:21.173Z,16.77
2019-04-23T19:01:01.974Z,16.78
2019-04-23T19:03:30.285Z,16.87
2019-04-23T19:06:10.668Z,16.81
2019-04-23T19:08:53.715Z,16.84
2019-04-23T19:11:23.091Z,16.86
2019-04-23T19:13:50.868Z,16.86
2019-04-23T19:16:25.332Z,16.89
2019-04-23T19:18:56.744Z,17.01
2019-04-23T19:21:49.005Z,16.98
2019-04-23T19:23:51.038Z,16.96
2019-04-23T19:26:47.268Z,17.10
2019-04-23T19:29:14.031Z,17.08
2019-04-23T19:31:34.475Z,17.03
2019-04-23T19:34:34.040Z,17.01
2019-04-23T19:36:52.540Z,17.01
2019-04-23T19:39:11.533Z,17.04
2019-04-23T19:41:49.825Z,17.12
2019-04-23T19:44:08.501Z,16.99
2019-04-23T19:49:13.771Z,17.01
2019-04-23T19:51:44.612Z,17.08
2019-04-23T19:54:17.129Z,17.03
2019-04-23T19:59:18.467Z,17.10
2019-04-23T20:01:44.694Z,17.06
2019-04-23T20:04:04.148Z,17.07
2019-04-23T20:09:28.487Z,17.07
2019-04-23T20:11:50.582Z,17.04
2019-04-23T20:14:09.657Z,17.00
2019-04-23T20:19:25.454Z,16.88
2019-04-23T20:21:51.060Z,16.96
2019-04-23T20:27:01.194Z,16.80
2019-04-23T20:34:51.818Z,16.83
2019-04-23T20:36:52.629Z,16.76
2019-04-23T20:39:34.923Z,16.71
2019-04-23T20:42:11.942Z,16.69
2019-04-23T20:44:39.418Z,16.67
2019-04-23T20:47:08.559Z,16.63
2019-04-23T20:54:42.386Z,16.51
2019-04-23T20:57:24.375Z,16.60
2019-04-23T20:59:57.202Z,16.45
2019-04-23T21:02:43.172Z,16.48
2019-04-23T21:05:11.861Z,16.43
2019-04-23T21:07:35.956Z,16.38
2019-04-23T21:10:08.978Z,16.32
2019-04-23T21:12:42.803Z,16.36
2019-04-23T21:15:05.306Z,16.40
2019-04-23T21:17:40.651Z,16.36
2019-04-23T21:22:31.532Z,16.17
2019-04-23T21:24:54.646Z,16.18
2019-04-23T21:27:43.080Z,16.22
2019-04-23T21:32:44.192Z,16.10
2019-04-23T21:37:47.965Z,16.09
2019-04-23T21:42:59.009Z,16.06
2019-04-23T21:45:25.850Z,16.07
2019-04-23T21:48:02.384Z,15.98
2019-04-23T21:50:28.430Z,15.98
2019-04-23T21:52:54.135Z,15.96
2019-04-23T21:55:36.275Z,15.82
2019-04-23T21:57:59.645Z,15.94
2019-04-23T22:00:24.289Z,15.67
2019-04-23T22:03:01.219Z,15.85
2019-04-23T22:05:42.500Z,15.81
2019-04-23T22:07:58.172Z,15.84
2019-04-23T22:10:25.693Z,15.83
2019-04-23T22:13:09.667Z,15.72
2019-04-23T22:15:34.968Z,15.69
2019-04-23T22:17:49.948Z,15.60
2019-04-23T22:20:33.184Z,15.69
2019-04-23T22:23:10.629Z,15.67
2019-04-23T22:25:32.158Z,15.60
2019-04-23T22:27:58.167Z,15.66
2019-04-23T22:30:31.584Z,15.55
2019-04-23T22:33:07.199Z,15.54
2019-04-23T22:35:30.112Z,15.49
2019-04-23T22:38:07.009Z,15.53
2019-04-23T22:40:25.369Z,15.43
2019-04-23T22:45:26.460Z,15.57
2019-04-23T22:50:39.752Z,15.51
2019-04-23T22:53:02.664Z,15.57
2019-04-23T22:55:38.899Z,15.54
2019-04-23T22:58:05.097Z,15.60
2019-04-23T23:00:27.355Z,15.55
2019-04-23T23:03:27.160Z,15.59
2019-04-23T23:06:09.200Z,15.46
2019-04-23T23:10:53.987Z,15.35
2019-04-23T23:13:20.748Z,15.40
2019-04-23T23:15:59.599Z,15.41
2019-04-23T23:18:17.872Z,15.41
2019-04-23T23:20:52.397Z,15.26
2019-04-23T23:23:17.725Z,15.19
2019-04-23T23:28:26.896Z,15.18
2019-04-23T23:35:54.156Z,15.10
2019-04-23T23:38:27.112Z,15.21
2019-04-23T23:40:58.728Z,15.15
2019-04-23T23:46:03.303Z,15.10
2019-04-23T23:48:20.132Z,15.07
2019-04-23T23:51:00.712Z,14.97
2019-04-23T23:53:31.421Z,15.07
2019-04-23T23:58:28.900Z,15.03
